sensor_id;sensor_type;location;lat;lon;timestamp;pressure;altitude;pressure_sealevel;temperature;humidity
80414;BME280;69758;52.580;13.068;2023-08-31T00:01:32;100304.09;;;22.63;33.88
80414;BME280;69758;52.580;13.068;2023-08-31T00:03:58;100302.83;;;22.60;33.97
80414;BME280;69758;52.580;13.068;2023-08-31T00:06:22;100299.69;;;22.57;34.15
80414;BME280;69758;52.580;13.068;2023-08-31T00:08:48;100294.07;;;22.63;34.29
80414;BME280;69758;52.580;13.068;2023-08-31T00:11:13;100293.49;;;22.63;34.16
80414;BME280;69758;52.580;13.068;2023-08-31T00:13:38;100294.44;;;22.59;34.29
80414;BME280;69758;52.580;13.068;2023-08-31T00:16:03;100303.68;;;22.59;34.42
80414;BME280;69758;52.580;13.068;2023-08-31T00:18:29;100304.93;;;22.34;34.61
80414;BME280;69758;52.580;13.068;2023-08-31T00:20:54;100307.14;;;22.57;34.74
80414;BME280;69758;52.580;13.068;2023-08-31T00:23:19;100303.22;;;22.55;35.01
80414;BME280;69758;52.580;13.068;2023-08-31T00:25:44;100300.64;;;22.57;35.06
80414;BME280;69758;52.580;13.068;2023-08-31T00:28:09;100298.56;;;22.49;35.25
80414;BME280;69758;52.580;13.068;2023-08-31T00:30:34;100304.63;;;22.51;35.20
80414;BME280;69758;52.580;13.068;2023-08-31T00:33:00;100304.00;;;22.50;35.29
80414;BME280;69758;52.580;13.068;2023-08-31T00:35:25;100306.84;;;22.55;35.27
80414;BME280;69758;52.580;13.068;2023-08-31T00:37:50;100310.79;;;22.59;35.26
80414;BME280;69758;52.580;13.068;2023-08-31T00:40:16;100319.45;;;22.57;35.20
80414;BME280;69758;52.580;13.068;2023-08-31T00:42:40;100319.90;;;22.54;35.19
80414;BME280;69758;52.580;13.068;2023-08-31T00:45:06;100321.64;;;22.51;35.19
80414;BME280;69758;52.580;13.068;2023-08-31T00:47:31;100324.12;;;22.53;35.23
80414;BME280;69758;52.580;13.068;2023-08-31T00:49:56;100321.10;;;22.73;35.28
80414;BME280;69758;52.580;13.068;2023-08-31T00:52:21;100318.25;;;22.66;35.30
80414;BME280;69758;52.580;13.068;2023-08-31T00:54:46;100321.39;;;22.63;35.35
80414;BME280;69758;52.580;13.068;2023-08-31T00:57:11;100334.05;;;22.23;35.48
80414;BME280;69758;52.580;13.068;2023-08-31T00:59:36;100335.90;;;22.54;35.48
80414;BME280;69758;52.580;13.068;2023-08-31T01:02:07;100336.06;;;22.55;35.41
80414;BME280;69758;52.580;13.068;2023-08-31T01:04:33;100340.45;;;22.51;35.43
80414;BME280;69758;52.580;13.068;2023-08-31T01:06:56;100339.70;;;22.27;35.72
80414;BME280;69758;52.580;13.068;2023-08-31T01:09:27;100342.30;;;21.64;36.26
80414;BME280;69758;52.580;13.068;2023-08-31T01:11:49;100348.51;;;21.06;36.89
80414;BME280;69758;52.580;13.068;2023-08-31T01:14:10;100353.73;;;21.09;36.85
80414;BME280;69758;52.580;13.068;2023-08-31T01:16:33;100352.84;;;21.26;36.58
80414;BME280;69758;52.580;13.068;2023-08-31T01:18:59;100350.02;;;21.47;36.33
80414;BME280;69758;52.580;13.068;2023-08-31T01:21:27;100350.41;;;21.76;35.96
80414;BME280;69758;52.580;13.068;2023-08-31T01:23:52;100343.56;;;21.79;35.94
80414;BME280;69758;52.580;13.068;2023-08-31T01:26:13;100338.05;;;21.90;35.66
80414;BME280;69758;52.580;13.068;2023-08-31T01:28:38;100345.55;;;21.47;35.40
80414;BME280;69758;52.580;13.068;2023-08-31T01:31:04;100346.15;;;21.54;35.31
80414;BME280;69758;52.580;13.068;2023-08-31T01:33:29;100354.93;;;22.10;35.28
80414;BME280;69758;52.580;13.068;2023-08-31T01:35:54;100361.69;;;21.90;35.23
80414;BME280;69758;52.580;13.068;2023-08-31T01:38:21;100368.15;;;21.87;35.21
80414;BME280;69758;52.580;13.068;2023-08-31T01:40:48;100378.99;;;21.86;35.29
80414;BME280;69758;52.580;13.068;2023-08-31T01:43:11;100376.17;;;21.89;35.31
80414;BME280;69758;52.580;13.068;2023-08-31T01:45:35;100371.10;;;21.95;35.18
80414;BME280;69758;52.580;13.068;2023-08-31T01:48:00;100372.59;;;21.82;35.23
80414;BME280;69758;52.580;13.068;2023-08-31T01:50:25;100372.31;;;22.04;35.24
80414;BME280;69758;52.580;13.068;2023-08-31T01:52:50;100372.80;;;21.80;35.30
80414;BME280;69758;52.580;13.068;2023-08-31T01:55:15;100383.25;;;21.58;35.23
80414;BME280;69758;52.580;13.068;2023-08-31T01:57:40;100387.02;;;21.84;35.17
80414;BME280;69758;52.580;13.068;2023-08-31T02:00:07;100388.31;;;21.77;35.14
80414;BME280;69758;52.580;13.068;2023-08-31T02:02:30;100389.59;;;21.99;35.18
80414;BME280;69758;52.580;13.068;2023-08-31T02:04:56;100389.45;;;21.70;35.13
80414;BME280;69758;52.580;13.068;2023-08-31T02:07:21;100389.46;;;21.69;35.12
80414;BME280;69758;52.580;13.068;2023-08-31T02:09:46;100391.26;;;21.73;35.10
80414;BME280;69758;52.580;13.068;2023-08-31T02:12:11;100391.32;;;21.74;35.05
80414;BME280;69758;52.580;13.068;2023-08-31T02:14:36;100388.90;;;21.95;35.07
80414;BME280;69758;52.580;13.068;2023-08-31T02:17:02;100384.77;;;21.94;34.96
80414;BME280;69758;52.580;13.068;2023-08-31T02:19:27;100382.08;;;21.89;34.90
80414;BME280;69758;52.580;13.068;2023-08-31T02:21:52;100387.10;;;21.91;34.84
80414;BME280;69758;52.580;13.068;2023-08-31T02:24:17;100387.95;;;21.62;34.95
80414;BME280;69758;52.580;13.068;2023-08-31T02:26:42;100388.21;;;21.87;34.84
80414;BME280;69758;52.580;13.068;2023-08-31T02:29:07;100390.94;;;21.62;34.89
80414;BME280;69758;52.580;13.068;2023-08-31T02:31:32;100395.58;;;21.86;34.99
80414;BME280;69758;52.580;13.068;2023-08-31T02:33:58;100396.41;;;21.81;35.04
80414;BME280;69758;52.580;13.068;2023-08-31T02:36:23;100395.94;;;21.69;35.16
80414;BME280;69758;52.580;13.068;2023-08-31T02:38:48;100390.30;;;21.70;35.00
80414;BME280;69758;52.580;13.068;2023-08-31T02:41:13;100386.72;;;21.70;34.93
80414;BME280;69758;52.580;13.068;2023-08-31T02:43:38;100385.40;;;21.47;34.87
80414;BME280;69758;52.580;13.068;2023-08-31T02:46:03;100389.38;;;21.72;34.83
80414;BME280;69758;52.580;13.068;2023-08-31T02:48:28;100395.77;;;21.71;34.72
80414;BME280;69758;52.580;13.068;2023-08-31T02:50:54;100400.77;;;21.67;34.86
80414;BME280;69758;52.580;13.068;2023-08-31T02:53:19;100396.27;;;21.67;34.95
80414;BME280;69758;52.580;13.068;2023-08-31T02:55:44;100395.52;;;21.67;34.93
80414;BME280;69758;52.580;13.068;2023-08-31T02:58:09;100401.75;;;21.63;34.99
80414;BME280;69758;52.580;13.068;2023-08-31T03:00:34;100404.25;;;21.59;35.02
80414;BME280;69758;52.580;13.068;2023-08-31T03:02:59;100404.59;;;21.27;35.04
80414;BME280;69758;52.580;13.068;2023-08-31T03:05:24;100398.19;;;21.19;35.11
80414;BME280;69758;52.580;13.068;2023-08-31T03:07:49;100400.12;;;21.36;35.23
80414;BME280;69758;52.580;13.068;2023-08-31T03:10:15;100401.62;;;21.24;35.43
80414;BME280;69758;52.580;13.068;2023-08-31T03:12:40;100405.48;;;21.22;35.41
80414;BME280;69758;52.580;13.068;2023-08-31T03:15:06;100409.65;;;21.02;35.37
80414;BME280;69758;52.580;13.068;2023-08-31T03:17:30;100412.10;;;21.25;35.42
80414;BME280;69758;52.580;13.068;2023-08-31T03:19:55;100414.20;;;21.45;35.50
80414;BME280;69758;52.580;13.068;2023-08-31T03:22:20;100417.70;;;21.19;35.46
80414;BME280;69758;52.580;13.068;2023-08-31T03:24:46;100415.79;;;21.22;35.54
80414;BME280;69758;52.580;13.068;2023-08-31T03:27:11;100418.61;;;21.71;35.61
80414;BME280;69758;52.580;13.068;2023-08-31T03:29:36;100417.10;;;21.46;35.59
80414;BME280;69758;52.580;13.068;2023-08-31T03:32:01;100417.95;;;21.18;35.71
80414;BME280;69758;52.580;13.068;2023-08-31T03:34:28;100419.21;;;21.10;35.87
80414;BME280;69758;52.580;13.068;2023-08-31T03:36:51;100422.28;;;21.35;35.91
80414;BME280;69758;52.580;13.068;2023-08-31T03:39:17;100425.00;;;21.33;36.01
80414;BME280;69758;52.580;13.068;2023-08-31T03:41:42;100422.33;;;21.12;35.95
80414;BME280;69758;52.580;13.068;2023-08-31T03:44:07;100424.63;;;21.06;36.05
80414;BME280;69758;52.580;13.068;2023-08-31T03:46:32;100427.86;;;21.06;36.15
80414;BME280;69758;52.580;13.068;2023-08-31T03:48:57;100427.70;;;21.04;36.23
80414;BME280;69758;52.580;13.068;2023-08-31T03:51:22;100430.10;;;21.27;36.33
80414;BME280;69758;52.580;13.068;2023-08-31T03:53:47;100432.63;;;21.03;36.41
80414;BME280;69758;52.580;13.068;2023-08-31T03:56:13;100434.77;;;21.48;36.51
80414;BME280;69758;52.580;13.068;2023-08-31T03:58:38;100440.08;;;21.37;36.63
80414;BME280;69758;52.580;13.068;2023-08-31T04:01:03;100444.01;;;20.69;36.87
80414;BME280;69758;52.580;13.068;2023-08-31T04:03:28;100448.00;;;20.78;36.78
80414;BME280;69758;52.580;13.068;2023-08-31T04:05:54;100447.71;;;21.17;36.68
80414;BME280;69758;52.580;13.068;2023-08-31T04:08:18;100447.18;;;20.88;36.74
80414;BME280;69758;52.580;13.068;2023-08-31T04:10:44;100448.03;;;20.92;36.74
80414;BME280;69758;52.580;13.068;2023-08-31T04:13:09;100446.46;;;20.84;36.89
80414;BME280;69758;52.580;13.068;2023-08-31T04:15:34;100448.00;;;21.30;37.07
80414;BME280;69758;52.580;13.068;2023-08-31T04:17:59;100451.71;;;20.99;37.09
80414;BME280;69758;52.580;13.068;2023-08-31T04:20:24;100454.21;;;20.72;37.20
80414;BME280;69758;52.580;13.068;2023-08-31T04:22:50;100451.60;;;20.84;37.12
80414;BME280;69758;52.580;13.068;2023-08-31T04:25:15;100454.05;;;21.07;37.10
80414;BME280;69758;52.580;13.068;2023-08-31T04:27:40;100454.95;;;21.16;36.95
80414;BME280;69758;52.580;13.068;2023-08-31T04:30:06;100456.11;;;21.24;36.86
80414;BME280;69758;52.580;13.068;2023-08-31T04:32:30;100459.76;;;20.88;37.17
80414;BME280;69758;52.580;13.068;2023-08-31T04:34:55;100461.40;;;21.39;37.16
80414;BME280;69758;52.580;13.068;2023-08-31T04:37:21;100461.18;;;21.20;37.05
80414;BME280;69758;52.580;13.068;2023-08-31T04:39:46;100462.00;;;20.95;37.07
80414;BME280;69758;52.580;13.068;2023-08-31T04:42:11;100463.79;;;20.79;37.35
80414;BME280;69758;52.580;13.068;2023-08-31T04:44:36;100463.45;;;21.04;37.33
80414;BME280;69758;52.580;13.068;2023-08-31T04:47:02;100464.33;;;21.23;37.31
80414;BME280;69758;52.580;13.068;2023-08-31T04:49:27;100465.47;;;20.85;37.39
80414;BME280;69758;52.580;13.068;2023-08-31T04:51:53;100464.11;;;20.92;37.42
80414;BME280;69758;52.580;13.068;2023-08-31T04:54:18;100465.19;;;20.93;37.31
80414;BME280;69758;52.580;13.068;2023-08-31T04:56:43;100467.77;;;21.22;37.21
80414;BME280;69758;52.580;13.068;2023-08-31T04:59:09;100468.60;;;21.27;37.11
80414;BME280;69758;52.580;13.068;2023-08-31T05:01:34;100472.05;;;21.08;37.26
80414;BME280;69758;52.580;13.068;2023-08-31T05:03:59;100475.78;;;21.09;37.15
80414;BME280;69758;52.580;13.068;2023-08-31T05:06:25;100475.34;;;21.15;37.12
80414;BME280;69758;52.580;13.068;2023-08-31T05:08:50;100474.06;;;21.14;37.13
80414;BME280;69758;52.580;13.068;2023-08-31T05:11:15;100476.61;;;21.12;37.07
80414;BME280;69758;52.580;13.068;2023-08-31T05:13:40;100478.64;;;21.12;37.16
80414;BME280;69758;52.580;13.068;2023-08-31T05:16:05;100479.37;;;21.13;37.18
80414;BME280;69758;52.580;13.068;2023-08-31T05:18:31;100484.86;;;21.41;37.15
80414;BME280;69758;52.580;13.068;2023-08-31T05:20:56;100487.30;;;21.12;37.28
80414;BME280;69758;52.580;13.068;2023-08-31T05:23:21;100489.56;;;20.98;37.53
80414;BME280;69758;52.580;13.068;2023-08-31T05:25:46;100491.33;;;21.08;37.36
80414;BME280;69758;52.580;13.068;2023-08-31T05:28:12;100492.33;;;21.06;37.24
80414;BME280;69758;52.580;13.068;2023-08-31T05:30:47;100492.63;;;21.10;37.27
80414;BME280;69758;52.580;13.068;2023-08-31T05:33:03;100497.01;;;21.19;37.16
80414;BME280;69758;52.580;13.068;2023-08-31T05:35:28;100501.04;;;21.52;37.07
80414;BME280;69758;52.580;13.068;2023-08-31T05:37:53;100503.89;;;21.01;37.31
80414;BME280;69758;52.580;13.068;2023-08-31T05:40:18;100505.88;;;21.13;37.25
80414;BME280;69758;52.580;13.068;2023-08-31T05:42:44;100510.20;;;21.19;37.30
80414;BME280;69758;52.580;13.068;2023-08-31T05:45:09;100511.74;;;21.20;37.39
80414;BME280;69758;52.580;13.068;2023-08-31T05:47:34;100513.39;;;21.23;37.45
80414;BME280;69758;52.580;13.068;2023-08-31T05:50:00;100515.19;;;21.04;37.48
80414;BME280;69758;52.580;13.068;2023-08-31T05:52:25;100519.42;;;21.26;37.51
80414;BME280;69758;52.580;13.068;2023-08-31T05:54:50;100521.14;;;21.34;37.39
80414;BME280;69758;52.580;13.068;2023-08-31T05:57:19;100521.41;;;21.28;37.43
80414;BME280;69758;52.580;13.068;2023-08-31T05:59:41;100521.95;;;21.27;37.58
80414;BME280;69758;52.580;13.068;2023-08-31T06:02:11;100523.35;;;21.13;37.62
80414;BME280;69758;52.580;13.068;2023-08-31T06:04:31;100526.79;;;21.16;37.67
80414;BME280;69758;52.580;13.068;2023-08-31T06:06:56;100528.63;;;21.02;37.91
80414;BME280;69758;52.580;13.068;2023-08-31T06:09:22;100530.81;;;21.08;37.91
80414;BME280;69758;52.580;13.068;2023-08-31T06:11:47;100537.75;;;20.99;38.09
80414;BME280;69758;52.580;13.068;2023-08-31T06:14:12;100538.49;;;20.98;38.19
80414;BME280;69758;52.580;13.068;2023-08-31T06:16:37;100539.25;;;21.11;38.06
80414;BME280;69758;52.580;13.068;2023-08-31T06:19:03;100544.84;;;20.88;38.12
80414;BME280;69758;52.580;13.068;2023-08-31T06:21:28;100542.88;;;20.76;38.16
80414;BME280;69758;52.580;13.068;2023-08-31T06:23:53;100544.15;;;21.22;38.31
80414;BME280;69758;52.580;13.068;2023-08-31T06:26:18;100547.65;;;20.65;38.85
80414;BME280;69758;52.580;13.068;2023-08-31T06:28:43;100549.97;;;20.61;38.70
80414;BME280;69758;52.580;13.068;2023-08-31T06:31:09;100547.67;;;20.63;38.47
80414;BME280;69758;52.580;13.068;2023-08-31T06:33:34;100549.86;;;21.17;38.47
80414;BME280;69758;52.580;13.068;2023-08-31T06:35:59;100551.12;;;21.16;38.31
80414;BME280;69758;52.580;13.068;2023-08-31T06:38:24;100556.83;;;20.77;38.26
80414;BME280;69758;52.580;13.068;2023-08-31T06:40:49;100560.89;;;20.81;38.51
80414;BME280;69758;52.580;13.068;2023-08-31T06:43:15;100562.76;;;20.77;38.52
80414;BME280;69758;52.580;13.068;2023-08-31T06:45:40;100566.52;;;20.61;38.40
80414;BME280;69758;52.580;13.068;2023-08-31T06:48:06;100564.55;;;20.76;38.55
80414;BME280;69758;52.580;13.068;2023-08-31T06:50:33;100569.36;;;20.61;38.59
80414;BME280;69758;52.580;13.068;2023-08-31T06:52:56;100573.17;;;20.69;38.47
80414;BME280;69758;52.580;13.068;2023-08-31T06:55:22;100573.67;;;20.52;38.35
80414;BME280;69758;52.580;13.068;2023-08-31T06:57:47;100577.98;;;20.15;38.54
80414;BME280;69758;52.580;13.068;2023-08-31T07:00:13;100583.59;;;20.26;38.37
80414;BME280;69758;52.580;13.068;2023-08-31T07:02:39;100584.02;;;19.74;38.32
80414;BME280;69758;52.580;13.068;2023-08-31T07:05:02;100584.22;;;20.56;38.07
80414;BME280;69758;52.580;13.068;2023-08-31T07:07:27;100584.62;;;20.65;37.97
80414;BME280;69758;52.580;13.068;2023-08-31T07:09:52;100583.99;;;20.51;38.06
80414;BME280;69758;52.580;13.068;2023-08-31T07:12:18;100583.48;;;20.50;38.02
80414;BME280;69758;52.580;13.068;2023-08-31T07:14:44;100587.40;;;20.71;37.97
80414;BME280;69758;52.580;13.068;2023-08-31T07:17:09;100588.71;;;20.72;38.22
80414;BME280;69758;52.580;13.068;2023-08-31T07:19:35;100591.45;;;20.86;38.07
80414;BME280;69758;52.580;13.068;2023-08-31T07:21:59;100594.56;;;20.47;38.00
80414;BME280;69758;52.580;13.068;2023-08-31T07:24:25;100597.37;;;20.36;37.98
80414;BME280;69758;52.580;13.068;2023-08-31T07:26:50;100595.90;;;20.36;37.83
80414;BME280;69758;52.580;13.068;2023-08-31T07:29:15;100599.87;;;20.63;37.38
80414;BME280;69758;52.580;13.068;2023-08-31T07:31:40;100600.83;;;19.95;37.68
80414;BME280;69758;52.580;13.068;2023-08-31T07:34:05;100604.37;;;20.16;37.27
80414;BME280;69758;52.580;13.068;2023-08-31T07:36:30;100608.27;;;20.24;37.07
80414;BME280;69758;52.580;13.068;2023-08-31T07:38:56;100608.57;;;20.41;37.04
80414;BME280;69758;52.580;13.068;2023-08-31T07:41:21;100610.37;;;20.70;37.15
80414;BME280;69758;52.580;13.068;2023-08-31T07:43:46;100608.81;;;20.59;36.90
80414;BME280;69758;52.580;13.068;2023-08-31T07:46:11;100611.19;;;20.31;37.60
80414;BME280;69758;52.580;13.068;2023-08-31T07:48:36;100614.38;;;20.58;37.21
80414;BME280;69758;52.580;13.068;2023-08-31T07:51:02;100616.68;;;20.01;37.50
80414;BME280;69758;52.580;13.068;2023-08-31T07:53:27;100615.86;;;20.26;37.73
80414;BME280;69758;52.580;13.068;2023-08-31T07:55:53;100620.66;;;20.08;37.64
80414;BME280;69758;52.580;13.068;2023-08-31T07:58:17;100627.00;;;20.52;37.69
80414;BME280;69758;52.580;13.068;2023-08-31T08:00:43;100627.89;;;20.29;37.18
80414;BME280;69758;52.580;13.068;2023-08-31T08:03:08;100630.09;;;20.65;37.02
80414;BME280;69758;52.580;13.068;2023-08-31T08:05:33;100635.76;;;20.78;36.82
80414;BME280;69758;52.580;13.068;2023-08-31T08:07:59;100637.21;;;21.25;36.51
80414;BME280;69758;52.580;13.068;2023-08-31T08:10:23;100638.12;;;21.05;36.31
80414;BME280;69758;52.580;13.068;2023-08-31T08:12:49;100638.80;;;21.34;36.02
80414;BME280;69758;52.580;13.068;2023-08-31T08:15:14;100640.64;;;21.46;35.99
80414;BME280;69758;52.580;13.068;2023-08-31T08:17:39;100641.69;;;21.44;36.02
80414;BME280;69758;52.580;13.068;2023-08-31T08:20:06;100642.03;;;21.31;35.78
80414;BME280;69758;52.580;13.068;2023-08-31T08:22:29;100641.56;;;21.88;35.50
80414;BME280;69758;52.580;13.068;2023-08-31T08:24:54;100642.33;;;21.97;35.05
80414;BME280;69758;52.580;13.068;2023-08-31T08:27:19;100641.89;;;21.92;34.80
80414;BME280;69758;52.580;13.068;2023-08-31T08:29:45;100640.28;;;21.58;34.55
80414;BME280;69758;52.580;13.068;2023-08-31T08:32:09;100640.96;;;21.85;34.42
80414;BME280;69758;52.580;13.068;2023-08-31T08:34:35;100642.52;;;22.31;34.40
80414;BME280;69758;52.580;13.068;2023-08-31T08:37:00;100647.88;;;21.39;34.61
80414;BME280;69758;52.580;13.068;2023-08-31T08:39:25;100648.37;;;21.28;35.04
80414;BME280;69758;52.580;13.068;2023-08-31T08:41:50;100647.46;;;21.08;34.94
80414;BME280;69758;52.580;13.068;2023-08-31T08:44:16;100646.55;;;21.19;34.11
80414;BME280;69758;52.580;13.068;2023-08-31T08:46:41;100645.12;;;21.60;33.86
80414;BME280;69758;52.580;13.068;2023-08-31T08:49:06;100650.45;;;21.48;34.00
80414;BME280;69758;52.580;13.068;2023-08-31T08:51:31;100643.15;;;21.64;33.42
80414;BME280;69758;52.580;13.068;2023-08-31T08:53:56;100644.56;;;21.58;33.76
80414;BME280;69758;52.580;13.068;2023-08-31T08:56:21;100640.85;;;21.71;33.72
80414;BME280;69758;52.580;13.068;2023-08-31T08:58:46;100643.97;;;22.02;33.32
80414;BME280;69758;52.580;13.068;2023-08-31T09:01:11;100645.18;;;21.96;32.98
80414;BME280;69758;52.580;13.068;2023-08-31T09:03:36;100648.40;;;21.80;32.93
80414;BME280;69758;52.580;13.068;2023-08-31T09:06:01;100650.69;;;21.96;32.94
80414;BME280;69758;52.580;13.068;2023-08-31T09:08:27;100650.86;;;21.89;32.67
80414;BME280;69758;52.580;13.068;2023-08-31T09:10:51;100652.57;;;22.01;32.89
80414;BME280;69758;52.580;13.068;2023-08-31T09:13:17;100653.42;;;22.34;32.94
80414;BME280;69758;52.580;13.068;2023-08-31T09:15:44;100649.36;;;22.02;32.90
80414;BME280;69758;52.580;13.068;2023-08-31T09:18:07;100652.36;;;21.95;33.11
80414;BME280;69758;52.580;13.068;2023-08-31T09:20:43;100649.63;;;22.10;32.77
80414;BME280;69758;52.580;13.068;2023-08-31T09:22:57;100650.12;;;22.21;32.59
80414;BME280;69758;52.580;13.068;2023-08-31T09:25:23;100646.18;;;21.91;32.27
80414;BME280;69758;52.580;13.068;2023-08-31T09:27:48;100648.34;;;22.08;32.46
80414;BME280;69758;52.580;13.068;2023-08-31T09:30:13;100653.42;;;22.13;32.57
80414;BME280;69758;52.580;13.068;2023-08-31T09:32:38;100649.57;;;21.96;31.16
80414;BME280;69758;52.580;13.068;2023-08-31T09:35:04;100644.25;;;22.04;31.34
80414;BME280;69758;52.580;13.068;2023-08-31T09:37:28;100644.55;;;22.10;30.75
80414;BME280;69758;52.580;13.068;2023-08-31T09:39:53;100640.25;;;22.22;30.66
80414;BME280;69758;52.580;13.068;2023-08-31T09:42:18;100638.70;;;22.61;30.12
80414;BME280;69758;52.580;13.068;2023-08-31T09:44:43;100633.30;;;22.63;31.11
80414;BME280;69758;52.580;13.068;2023-08-31T09:47:09;100634.06;;;22.12;30.55
80414;BME280;69758;52.580;13.068;2023-08-31T09:49:34;100625.97;;;22.38;30.29
80414;BME280;69758;52.580;13.068;2023-08-31T09:52:03;100623.11;;;22.92;30.39
80414;BME280;69758;52.580;13.068;2023-08-31T09:54:25;100624.00;;;23.06;30.37
80414;BME280;69758;52.580;13.068;2023-08-31T09:56:49;100621.58;;;22.66;30.54
80414;BME280;69758;52.580;13.068;2023-08-31T09:59:15;100625.33;;;22.59;29.85
80414;BME280;69758;52.580;13.068;2023-08-31T10:01:40;100626.58;;;22.05;30.11
80414;BME280;69758;52.580;13.068;2023-08-31T10:04:05;100633.67;;;22.20;30.38
80414;BME280;69758;52.580;13.068;2023-08-31T10:06:35;100645.49;;;22.69;30.10
80414;BME280;69758;52.580;13.068;2023-08-31T10:08:55;100649.63;;;22.64;29.65
80414;BME280;69758;52.580;13.068;2023-08-31T10:11:21;100646.90;;;22.61;29.94
80414;BME280;69758;52.580;13.068;2023-08-31T10:13:47;100646.62;;;22.39;29.69
80414;BME280;69758;52.580;13.068;2023-08-31T10:16:11;100649.05;;;22.46;29.93
80414;BME280;69758;52.580;13.068;2023-08-31T10:18:35;100648.57;;;22.22;30.42
80414;BME280;69758;52.580;13.068;2023-08-31T10:21:01;100652.10;;;21.77;30.79
80414;BME280;69758;52.580;13.068;2023-08-31T10:23:25;100655.08;;;21.84;31.55
80414;BME280;69758;52.580;13.068;2023-08-31T10:26:02;100650.44;;;21.70;31.61
80414;BME280;69758;52.580;13.068;2023-08-31T10:28:17;100652.24;;;21.66;31.53
80414;BME280;69758;52.580;13.068;2023-08-31T10:30:40;100646.39;;;21.94;31.27
80414;BME280;69758;52.580;13.068;2023-08-31T10:33:21;100651.47;;;22.13;31.24
80414;BME280;69758;52.580;13.068;2023-08-31T10:40:21;100664.18;;;22.64;31.23
80414;BME280;69758;52.580;13.068;2023-08-31T10:42:47;100668.82;;;22.28;31.16
80414;BME280;69758;52.580;13.068;2023-08-31T10:45:12;100671.38;;;22.39;30.35
80414;BME280;69758;52.580;13.068;2023-08-31T10:47:38;100660.82;;;22.54;29.24
80414;BME280;69758;52.580;13.068;2023-08-31T10:52:27;100658.28;;;22.68;28.07
80414;BME280;69758;52.580;13.068;2023-08-31T10:54:55;100648.70;;;22.64;28.29
80414;BME280;69758;52.580;13.068;2023-08-31T10:57:17;100647.95;;;22.83;26.83
80414;BME280;69758;52.580;13.068;2023-08-31T10:59:44;100644.20;;;22.60;27.42
80414;BME280;69758;52.580;13.068;2023-08-31T11:02:07;100646.10;;;22.65;27.71
80414;BME280;69758;52.580;13.068;2023-08-31T11:07:11;100642.12;;;22.79;28.10
80414;BME280;69758;52.580;13.068;2023-08-31T11:09:22;100638.80;;;22.92;27.97
80414;BME280;69758;52.580;13.068;2023-08-31T11:11:47;100637.16;;;23.11;27.51
80414;BME280;69758;52.580;13.068;2023-08-31T11:14:13;100637.78;;;22.96;27.32
80414;BME280;69758;52.580;13.068;2023-08-31T11:16:38;100633.63;;;22.98;27.36
80414;BME280;69758;52.580;13.068;2023-08-31T11:19:03;100629.11;;;22.66;28.11
80414;BME280;69758;52.580;13.068;2023-08-31T11:21:28;100626.50;;;22.89;28.57
80414;BME280;69758;52.580;13.068;2023-08-31T11:23:53;100615.55;;;23.03;28.71
80414;BME280;69758;52.580;13.068;2023-08-31T11:26:18;100611.34;;;23.27;28.97
80414;BME280;69758;52.580;13.068;2023-08-31T11:28:43;100609.85;;;22.58;29.24
80414;BME280;69758;52.580;13.068;2023-08-31T11:31:08;100614.42;;;23.34;30.24
80414;BME280;69758;52.580;13.068;2023-08-31T11:33:33;100610.40;;;22.94;30.90
80414;BME280;69758;52.580;13.068;2023-08-31T11:35:59;100606.88;;;23.60;29.99
80414;BME280;69758;52.580;13.068;2023-08-31T11:38:24;100605.92;;;23.37;30.07
80414;BME280;69758;52.580;13.068;2023-08-31T11:40:48;100616.79;;;23.14;31.48
80414;BME280;69758;52.580;13.068;2023-08-31T11:43:15;100623.70;;;22.75;32.17
80414;BME280;69758;52.580;13.068;2023-08-31T11:45:39;100632.60;;;22.97;32.46
80414;BME280;69758;52.580;13.068;2023-08-31T11:48:04;100629.66;;;22.73;32.19
80414;BME280;69758;52.580;13.068;2023-08-31T11:50:29;100624.63;;;22.88;30.06
80414;BME280;69758;52.580;13.068;2023-08-31T11:52:54;100624.05;;;22.91;30.30
80414;BME280;69758;52.580;13.068;2023-08-31T11:55:19;100627.40;;;22.91;30.58
80414;BME280;69758;52.580;13.068;2023-08-31T11:57:48;100631.99;;;23.03;31.44
80414;BME280;69758;52.580;13.068;2023-08-31T12:00:10;100631.07;;;22.90;31.91
80414;BME280;69758;52.580;13.068;2023-08-31T12:02:35;100630.18;;;23.04;32.16
80414;BME280;69758;52.580;13.068;2023-08-31T12:04:59;100627.30;;;23.42;32.06
80414;BME280;69758;52.580;13.068;2023-08-31T12:07:24;100623.08;;;22.97;32.21
80414;BME280;69758;52.580;13.068;2023-08-31T12:09:50;100617.41;;;23.36;31.99
80414;BME280;69758;52.580;13.068;2023-08-31T12:12:15;100622.71;;;23.13;31.63
80414;BME280;69758;52.580;13.068;2023-08-31T12:14:40;100621.17;;;23.34;32.20
80414;BME280;69758;52.580;13.068;2023-08-31T12:17:06;100620.59;;;23.27;32.55
80414;BME280;69758;52.580;13.068;2023-08-31T12:19:31;100621.12;;;23.47;32.54
80414;BME280;69758;52.580;13.068;2023-08-31T12:21:55;100617.49;;;23.72;32.22
80414;BME280;69758;52.580;13.068;2023-08-31T12:24:20;100617.38;;;23.40;32.16
80414;BME280;69758;52.580;13.068;2023-08-31T12:26:45;100616.92;;;23.37;32.37
80414;BME280;69758;52.580;13.068;2023-08-31T12:29:11;100618.88;;;23.28;32.39
80414;BME280;69758;52.580;13.068;2023-08-31T12:31:36;100619.24;;;23.38;32.56
80414;BME280;69758;52.580;13.068;2023-08-31T12:34:01;100617.48;;;22.85;33.15
80414;BME280;69758;52.580;13.068;2023-08-31T12:36:26;100616.67;;;23.06;32.11
80414;BME280;69758;52.580;13.068;2023-08-31T12:38:51;100621.00;;;23.16;32.81